Bookmark and Share
Track history (hours):
 

Anglian Lady

Last reported at 2013-Dec-23 11:30 UTC. Time now 2014-Apr-23 09:29 UTC.
Position N 45°51' W 084°08'.
Warning: this ship's position is months out of date.

Length 32 m.

Type: Tug. MMSI: 316002238.

NotesDate/timePositionNaut miles runAvg speedWind from/ knotsBaromVisibWave heightAir tempDewpointWater temp
2013-Dec-23 11:30N 45°51' W 084°08'7 7.9
2013-Dec-23 10:33N 45°51' W 084°19'8 7.9
2013-Dec-23 09:33N 45°51' W 084°30'8 8.3
2013-Dec-23 08:33N 45°49' W 084°42'9 8.7
2013-Dec-23 07:33N 45°50' W 084°54'8 8.0
2013-Dec-23 06:33N 45°51' W 085°06'7 6.8
2013-Dec-23 05:33N 45°52' W 085°15'3 3.0
2013-Dec-23 04:33N 45°53' W 085°20'1 0.6
2013-Dec-23 03:33N 45°53' W 085°20'0 0.2
2013-Dec-23 02:33N 45°54' W 085°20'3 3.5
2013-Dec-23 01:33N 45°54' W 085°25'6 5.9
2013-Dec-23 00:33N 45°54' W 085°33'6 5.7
2013-Dec-22 23:33N 45°51' W 085°40'6 6.2
2013-Dec-22 22:33N 45°47' W 085°47'6 6.4
2013-Dec-22 21:33N 45°41' W 085°44'9 8.8
2013-Dec-22 20:33N 45°33' W 085°39'7 7.0
2013-Dec-22 19:33N 45°27' W 085°36'6 6.4
2013-Dec-22 18:33N 45°21' W 085°40'6 6.0
2013-Dec-22 17:33N 45°16' W 085°44'5 5.5
2013-Dec-22 16:33N 45°11' W 085°48'5 5.0
2013-Dec-22 15:33N 45°07' W 085°51'5 4.9
2013-Dec-22 14:33N 45°02' W 085°55'  
2013-Dec-19 12:31N 45°12' W 085°48'7 7.2
2013-Dec-19 11:33N 45°17' W 085°42'7 7.0
2013-Dec-19 10:33N 45°23' W 085°36'7 6.8
2013-Dec-19 09:33N 45°28' W 085°30'6 5.9
2013-Dec-19 08:33N 45°33' W 085°25'5 5.5
2013-Dec-19 07:33N 45°37' W 085°20'6 5.5
2013-Dec-19 06:33N 45°41' W 085°15'5 5.1
2013-Dec-19 05:33N 45°45' W 085°10'4 4.0
2013-Dec-19 04:33N 45°49' W 085°08'4 3.9
2013-Dec-19 03:33N 45°51' W 085°04'5 5.0
2013-Dec-19 02:33N 45°50' W 084°57'4 4.5
2013-Dec-19 01:33N 45°50' W 084°50'6 6.0
2013-Dec-19 00:33N 45°49' W 084°42'7 6.9
2013-Dec-18 23:31N 45°51' W 084°32'7 7.4
2013-Dec-18 22:33N 45°52' W 084°21'  

Dump ship's entire track history

sailing weather and tide predictions

Anglian Lady — VOLP — position and weather